sensor_id;sensor_type;location;lat;lon;timestamp;P1;durP1;ratioP1;P2;durP2;ratioP2
10074;SDS011;5076;42.680;23.288;2022-11-15T00:00:54;35.80;;;21.97;;
10074;SDS011;5076;42.680;23.288;2022-11-15T00:03:22;36.70;;;23.13;;
10074;SDS011;5076;42.680;23.288;2022-11-15T00:05:49;34.40;;;21.27;;
10074;SDS011;5076;42.680;23.288;2022-11-15T00:08:17;30.77;;;20.90;;
10074;SDS011;5076;42.680;23.288;2022-11-15T00:10:53;50.17;;;32.40;;
10074;SDS011;5076;42.680;23.288;2022-11-15T00:13:19;45.13;;;27.23;;
10074;SDS011;5076;42.680;23.288;2022-11-15T00:15:46;38.93;;;25.63;;
10074;SDS011;5076;42.680;23.288;2022-11-15T00:18:13;37.37;;;23.70;;
10074;SDS011;5076;42.680;23.288;2022-11-15T00:20:40;42.97;;;24.17;;
10074;SDS011;5076;42.680;23.288;2022-11-15T00:23:06;37.17;;;22.70;;
10074;SDS011;5076;42.680;23.288;2022-11-15T00:25:34;35.07;;;21.73;;
10074;SDS011;5076;42.680;23.288;2022-11-15T00:28:01;38.70;;;21.40;;
10074;SDS011;5076;42.680;23.288;2022-11-15T00:30:28;37.90;;;22.73;;
10074;SDS011;5076;42.680;23.288;2022-11-15T00:32:54;37.73;;;23.27;;
10074;SDS011;5076;42.680;23.288;2022-11-15T00:35:21;37.10;;;22.60;;
10074;SDS011;5076;42.680;23.288;2022-11-15T00:37:48;34.07;;;21.53;;
10074;SDS011;5076;42.680;23.288;2022-11-15T00:40:14;41.87;;;23.47;;
10074;SDS011;5076;42.680;23.288;2022-11-15T00:42:42;35.40;;;22.13;;
10074;SDS011;5076;42.680;23.288;2022-11-15T00:45:09;33.53;;;22.17;;
10074;SDS011;5076;42.680;23.288;2022-11-15T00:47:36;37.57;;;22.63;;
10074;SDS011;5076;42.680;23.288;2022-11-15T00:50:03;33.10;;;21.10;;
10074;SDS011;5076;42.680;23.288;2022-11-15T00:52:29;40.63;;;22.50;;
10074;SDS011;5076;42.680;23.288;2022-11-15T00:54:56;33.70;;;21.87;;
10074;SDS011;5076;42.680;23.288;2022-11-15T00:57:22;34.90;;;21.40;;
10074;SDS011;5076;42.680;23.288;2022-11-15T00:59:50;34.97;;;21.57;;
10074;SDS011;5076;42.680;23.288;2022-11-15T01:02:17;33.53;;;21.90;;
10074;SDS011;5076;42.680;23.288;2022-11-15T01:04:43;36.93;;;22.20;;
10074;SDS011;5076;42.680;23.288;2022-11-15T01:07:10;33.23;;;22.57;;
10074;SDS011;5076;42.680;23.288;2022-11-15T01:09:36;37.23;;;21.53;;
10074;SDS011;5076;42.680;23.288;2022-11-15T01:12:03;36.90;;;22.87;;
10074;SDS011;5076;42.680;23.288;2022-11-15T01:14:30;33.33;;;22.17;;
10074;SDS011;5076;42.680;23.288;2022-11-15T01:16:57;36.17;;;23.03;;
10074;SDS011;5076;42.680;23.288;2022-11-15T01:19:24;32.17;;;21.20;;
10074;SDS011;5076;42.680;23.288;2022-11-15T01:21:51;36.87;;;22.17;;
10074;SDS011;5076;42.680;23.288;2022-11-15T01:24:17;34.07;;;21.07;;
10074;SDS011;5076;42.680;23.288;2022-11-15T01:26:44;34.07;;;21.07;;
10074;SDS011;5076;42.680;23.288;2022-11-15T01:29:10;32.73;;;20.77;;
10074;SDS011;5076;42.680;23.288;2022-11-15T01:31:37;31.30;;;19.97;;
10074;SDS011;5076;42.680;23.288;2022-11-15T01:34:05;31.00;;;20.60;;
10074;SDS011;5076;42.680;23.288;2022-11-15T01:36:32;28.83;;;18.83;;
10074;SDS011;5076;42.680;23.288;2022-11-15T01:38:58;29.30;;;18.93;;
10074;SDS011;5076;42.680;23.288;2022-11-15T01:41:25;30.20;;;18.93;;
10074;SDS011;5076;42.680;23.288;2022-11-15T01:43:53;32.07;;;20.27;;
10074;SDS011;5076;42.680;23.288;2022-11-15T01:46:24;28.20;;;19.07;;
10074;SDS011;5076;42.680;23.288;2022-11-15T01:48:51;32.13;;;19.17;;
10074;SDS011;5076;42.680;23.288;2022-11-15T01:51:21;30.67;;;18.70;;
10074;SDS011;5076;42.680;23.288;2022-11-15T01:53:49;28.60;;;18.60;;
10074;SDS011;5076;42.680;23.288;2022-11-15T01:56:19;30.27;;;19.20;;
10074;SDS011;5076;42.680;23.288;2022-11-15T01:58:46;30.93;;;18.97;;
10074;SDS011;5076;42.680;23.288;2022-11-15T02:01:13;30.13;;;17.90;;
10074;SDS011;5076;42.680;23.288;2022-11-15T02:03:41;31.23;;;19.27;;
10074;SDS011;5076;42.680;23.288;2022-11-15T02:06:08;30.80;;;18.80;;
10074;SDS011;5076;42.680;23.288;2022-11-15T02:08:37;30.20;;;18.13;;
10074;SDS011;5076;42.680;23.288;2022-11-15T02:11:04;29.43;;;18.13;;
10074;SDS011;5076;42.680;23.288;2022-11-15T02:13:30;32.80;;;20.17;;
10074;SDS011;5076;42.680;23.288;2022-11-15T02:15:58;33.10;;;20.83;;
10074;SDS011;5076;42.680;23.288;2022-11-15T02:18:30;29.37;;;18.37;;
10074;SDS011;5076;42.680;23.288;2022-11-15T02:21:02;31.23;;;18.80;;
10074;SDS011;5076;42.680;23.288;2022-11-15T02:23:51;36.63;;;20.17;;
10074;SDS011;5076;42.680;23.288;2022-11-15T02:26:31;34.77;;;21.43;;
10074;SDS011;5076;42.680;23.288;2022-11-15T02:29:03;32.43;;;20.50;;
10074;SDS011;5076;42.680;23.288;2022-11-15T02:31:34;33.40;;;18.67;;
10074;SDS011;5076;42.680;23.288;2022-11-15T02:34:04;28.17;;;18.47;;
10074;SDS011;5076;42.680;23.288;2022-11-15T02:36:34;30.90;;;18.17;;
10074;SDS011;5076;42.680;23.288;2022-11-15T02:39:03;30.47;;;19.23;;
10074;SDS011;5076;42.680;23.288;2022-11-15T02:41:30;29.00;;;18.33;;
10074;SDS011;5076;42.680;23.288;2022-11-15T02:44:02;28.70;;;19.57;;
10074;SDS011;5076;42.680;23.288;2022-11-15T02:46:33;37.00;;;21.47;;
10074;SDS011;5076;42.680;23.288;2022-11-15T02:49:18;40.73;;;25.87;;
10074;SDS011;5076;42.680;23.288;2022-11-15T02:51:46;53.97;;;32.80;;
10074;SDS011;5076;42.680;23.288;2022-11-15T02:54:14;53.83;;;34.33;;
10074;SDS011;5076;42.680;23.288;2022-11-15T02:56:41;50.50;;;33.10;;
10074;SDS011;5076;42.680;23.288;2022-11-15T03:01:59;45.90;;;29.53;;
10074;SDS011;5076;42.680;23.288;2022-11-15T03:04:30;46.37;;;28.87;;
10074;SDS011;5076;42.680;23.288;2022-11-15T03:07:03;46.03;;;29.63;;
10074;SDS011;5076;42.680;23.288;2022-11-15T03:09:33;51.10;;;31.20;;
10074;SDS011;5076;42.680;23.288;2022-11-15T03:12:03;47.00;;;29.90;;
10074;SDS011;5076;42.680;23.288;2022-11-15T03:14:30;46.63;;;30.13;;
10074;SDS011;5076;42.680;23.288;2022-11-15T03:17:01;45.37;;;28.03;;
10074;SDS011;5076;42.680;23.288;2022-11-15T03:19:30;45.40;;;27.63;;
10074;SDS011;5076;42.680;23.288;2022-11-15T03:21:59;39.27;;;26.10;;
10074;SDS011;5076;42.680;23.288;2022-11-15T03:24:27;43.57;;;27.07;;
10074;SDS011;5076;42.680;23.288;2022-11-15T03:26:55;43.07;;;26.20;;
10074;SDS011;5076;42.680;23.288;2022-11-15T03:29:24;43.70;;;27.87;;
10074;SDS011;5076;42.680;23.288;2022-11-15T03:31:52;46.23;;;29.00;;
10074;SDS011;5076;42.680;23.288;2022-11-15T03:34:23;50.87;;;32.23;;
10074;SDS011;5076;42.680;23.288;2022-11-15T03:36:51;55.63;;;33.77;;
10074;SDS011;5076;42.680;23.288;2022-11-15T03:39:18;54.63;;;34.60;;
10074;SDS011;5076;42.680;23.288;2022-11-15T03:41:47;51.80;;;32.50;;
10074;SDS011;5076;42.680;23.288;2022-11-15T03:44:16;49.53;;;32.77;;
10074;SDS011;5076;42.680;23.288;2022-11-15T03:46:47;54.23;;;34.43;;
10074;SDS011;5076;42.680;23.288;2022-11-15T03:49:19;49.83;;;32.17;;
10074;SDS011;5076;42.680;23.288;2022-11-15T03:51:50;52.63;;;32.90;;
10074;SDS011;5076;42.680;23.288;2022-11-15T03:54:16;61.33;;;32.07;;
10074;SDS011;5076;42.680;23.288;2022-11-15T03:56:43;68.57;;;32.83;;
10074;SDS011;5076;42.680;23.288;2022-11-15T03:59:09;55.30;;;31.33;;
10074;SDS011;5076;42.680;23.288;2022-11-15T04:01:36;61.83;;;31.03;;
10074;SDS011;5076;42.680;23.288;2022-11-15T04:04:02;60.23;;;32.03;;
10074;SDS011;5076;42.680;23.288;2022-11-15T04:06:29;56.70;;;29.27;;
10074;SDS011;5076;42.680;23.288;2022-11-15T04:08:57;51.77;;;29.63;;
10074;SDS011;5076;42.680;23.288;2022-11-15T04:11:23;55.00;;;29.03;;
10074;SDS011;5076;42.680;23.288;2022-11-15T04:13:50;56.17;;;30.27;;
10074;SDS011;5076;42.680;23.288;2022-11-15T04:16:16;59.17;;;30.50;;
10074;SDS011;5076;42.680;23.288;2022-11-15T04:18:43;55.17;;;28.50;;
10074;SDS011;5076;42.680;23.288;2022-11-15T04:21:09;64.87;;;30.90;;
10074;SDS011;5076;42.680;23.288;2022-11-15T04:23:53;53.60;;;29.53;;
10074;SDS011;5076;42.680;23.288;2022-11-15T04:26:38;56.73;;;29.73;;
10074;SDS011;5076;42.680;23.288;2022-11-15T04:29:05;56.17;;;28.73;;
10074;SDS011;5076;42.680;23.288;2022-11-15T04:31:49;59.20;;;29.63;;
10074;SDS011;5076;42.680;23.288;2022-11-15T04:34:15;59.53;;;30.23;;
10074;SDS011;5076;42.680;23.288;2022-11-15T04:36:42;53.20;;;30.53;;
10074;SDS011;5076;42.680;23.288;2022-11-15T04:39:26;55.40;;;29.63;;
10074;SDS011;5076;42.680;23.288;2022-11-15T04:41:53;60.20;;;31.37;;
10074;SDS011;5076;42.680;23.288;2022-11-15T04:44:20;71.80;;;32.70;;
10074;SDS011;5076;42.680;23.288;2022-11-15T04:46:47;59.50;;;32.30;;
10074;SDS011;5076;42.680;23.288;2022-11-15T04:49:13;56.83;;;32.47;;
10074;SDS011;5076;42.680;23.288;2022-11-15T04:51:40;52.03;;;30.60;;
10074;SDS011;5076;42.680;23.288;2022-11-15T04:54:06;57.17;;;29.67;;
10074;SDS011;5076;42.680;23.288;2022-11-15T04:56:33;55.87;;;29.80;;
10074;SDS011;5076;42.680;23.288;2022-11-15T04:59:01;53.70;;;28.47;;
10074;SDS011;5076;42.680;23.288;2022-11-15T05:01:27;57.90;;;29.33;;
10074;SDS011;5076;42.680;23.288;2022-11-15T05:03:54;61.57;;;32.77;;
10074;SDS011;5076;42.680;23.288;2022-11-15T05:06:43;65.10;;;31.43;;
10074;SDS011;5076;42.680;23.288;2022-11-15T05:09:10;79.63;;;37.30;;
10074;SDS011;5076;42.680;23.288;2022-11-15T05:11:38;84.33;;;38.70;;
10074;SDS011;5076;42.680;23.288;2022-11-15T05:14:06;79.70;;;38.03;;
10074;SDS011;5076;42.680;23.288;2022-11-15T05:16:32;80.50;;;38.77;;
10074;SDS011;5076;42.680;23.288;2022-11-15T05:18:59;84.33;;;38.43;;
10074;SDS011;5076;42.680;23.288;2022-11-15T05:21:25;76.10;;;37.17;;
10074;SDS011;5076;42.680;23.288;2022-11-15T05:23:52;75.60;;;35.70;;
10074;SDS011;5076;42.680;23.288;2022-11-15T05:26:19;84.03;;;37.27;;
10074;SDS011;5076;42.680;23.288;2022-11-15T05:28:45;81.13;;;36.77;;
10074;SDS011;5076;42.680;23.288;2022-11-15T05:31:14;86.00;;;38.67;;
10074;SDS011;5076;42.680;23.288;2022-11-15T05:33:41;70.53;;;34.77;;
10074;SDS011;5076;42.680;23.288;2022-11-15T05:36:09;77.73;;;35.37;;
10074;SDS011;5076;42.680;23.288;2022-11-15T05:38:38;73.47;;;34.37;;
10074;SDS011;5076;42.680;23.288;2022-11-15T05:41:04;78.97;;;34.83;;
10074;SDS011;5076;42.680;23.288;2022-11-15T05:43:32;96.70;;;38.47;;
10074;SDS011;5076;42.680;23.288;2022-11-15T05:45:59;94.97;;;38.57;;
10074;SDS011;5076;42.680;23.288;2022-11-15T05:48:28;80.60;;;36.07;;
10074;SDS011;5076;42.680;23.288;2022-11-15T05:50:54;85.13;;;36.90;;
10074;SDS011;5076;42.680;23.288;2022-11-15T05:53:22;81.23;;;34.83;;
10074;SDS011;5076;42.680;23.288;2022-11-15T05:55:49;68.73;;;33.90;;
10074;SDS011;5076;42.680;23.288;2022-11-15T05:58:15;76.80;;;34.30;;
10074;SDS011;5076;42.680;23.288;2022-11-15T06:00:42;80.07;;;37.03;;
10074;SDS011;5076;42.680;23.288;2022-11-15T06:03:09;91.23;;;39.97;;
10074;SDS011;5076;42.680;23.288;2022-11-15T06:05:37;83.07;;;37.83;;
10074;SDS011;5076;42.680;23.288;2022-11-15T06:08:03;77.70;;;35.33;;
10074;SDS011;5076;42.680;23.288;2022-11-15T06:10:30;82.63;;;36.70;;
10074;SDS011;5076;42.680;23.288;2022-11-15T06:12:57;79.60;;;34.43;;
10074;SDS011;5076;42.680;23.288;2022-11-15T06:15:24;78.27;;;34.37;;
10074;SDS011;5076;42.680;23.288;2022-11-15T06:17:50;75.27;;;36.13;;
10074;SDS011;5076;42.680;23.288;2022-11-15T06:20:17;86.00;;;38.37;;
10074;SDS011;5076;42.680;23.288;2022-11-15T06:22:45;98.30;;;39.50;;
10074;SDS011;5076;42.680;23.288;2022-11-15T06:25:11;102.63;;;38.37;;
10074;SDS011;5076;42.680;23.288;2022-11-15T06:27:38;94.57;;;38.13;;
10074;SDS011;5076;42.680;23.288;2022-11-15T06:30:05;91.10;;;38.87;;
10074;SDS011;5076;42.680;23.288;2022-11-15T06:32:31;109.53;;;41.77;;
10074;SDS011;5076;42.680;23.288;2022-11-15T06:34:58;109.87;;;41.47;;
10074;SDS011;5076;42.680;23.288;2022-11-15T06:37:24;97.23;;;38.13;;
10074;SDS011;5076;42.680;23.288;2022-11-15T06:39:52;98.23;;;38.80;;
10074;SDS011;5076;42.680;23.288;2022-11-15T06:42:19;98.10;;;38.90;;
10074;SDS011;5076;42.680;23.288;2022-11-15T06:44:45;99.30;;;39.50;;
10074;SDS011;5076;42.680;23.288;2022-11-15T06:47:12;91.47;;;39.13;;
10074;SDS011;5076;42.680;23.288;2022-11-15T06:49:38;98.07;;;39.33;;
10074;SDS011;5076;42.680;23.288;2022-11-15T06:52:05;99.03;;;38.07;;
10074;SDS011;5076;42.680;23.288;2022-11-15T06:54:31;99.63;;;41.07;;
10074;SDS011;5076;42.680;23.288;2022-11-15T06:56:59;100.80;;;40.70;;
10074;SDS011;5076;42.680;23.288;2022-11-15T06:59:26;100.63;;;41.27;;
10074;SDS011;5076;42.680;23.288;2022-11-15T07:01:52;105.57;;;41.70;;
10074;SDS011;5076;42.680;23.288;2022-11-15T07:04:19;103.87;;;42.03;;
10074;SDS011;5076;42.680;23.288;2022-11-15T07:06:46;108.57;;;43.83;;
10074;SDS011;5076;42.680;23.288;2022-11-15T07:09:12;95.60;;;40.50;;
10074;SDS011;5076;42.680;23.288;2022-11-15T07:11:39;104.90;;;40.53;;
10074;SDS011;5076;42.680;23.288;2022-11-15T07:14:07;105.10;;;43.97;;
10074;SDS011;5076;42.680;23.288;2022-11-15T07:16:33;92.80;;;40.70;;
10074;SDS011;5076;42.680;23.288;2022-11-15T07:19:00;90.87;;;39.07;;
10074;SDS011;5076;42.680;23.288;2022-11-15T07:21:27;87.37;;;38.87;;
10074;SDS011;5076;42.680;23.288;2022-11-15T07:23:53;93.87;;;40.37;;
10074;SDS011;5076;42.680;23.288;2022-11-15T07:26:20;86.17;;;39.90;;
10074;SDS011;5076;42.680;23.288;2022-11-15T07:28:46;82.33;;;37.60;;
10074;SDS011;5076;42.680;23.288;2022-11-15T07:31:14;63.93;;;32.50;;
10074;SDS011;5076;42.680;23.288;2022-11-15T07:33:41;65.87;;;31.47;;
10074;SDS011;5076;42.680;23.288;2022-11-15T07:36:08;56.60;;;30.27;;
10074;SDS011;5076;42.680;23.288;2022-11-15T07:38:35;62.67;;;30.77;;
10074;SDS011;5076;42.680;23.288;2022-11-15T07:41:02;61.30;;;31.43;;
10074;SDS011;5076;42.680;23.288;2022-11-15T07:43:29;69.37;;;30.97;;
10074;SDS011;5076;42.680;23.288;2022-11-15T07:45:58;62.63;;;31.87;;
10074;SDS011;5076;42.680;23.288;2022-11-15T07:48:26;63.37;;;32.00;;
10074;SDS011;5076;42.680;23.288;2022-11-15T07:50:52;60.10;;;33.40;;
10074;SDS011;5076;42.680;23.288;2022-11-15T07:53:19;57.97;;;32.00;;
10074;SDS011;5076;42.680;23.288;2022-11-15T07:55:45;53.80;;;30.00;;
10074;SDS011;5076;42.680;23.288;2022-11-15T07:58:12;61.80;;;32.10;;
10074;SDS011;5076;42.680;23.288;2022-11-15T08:00:38;66.13;;;33.17;;
10074;SDS011;5076;42.680;23.288;2022-11-15T08:03:05;60.07;;;33.93;;
10074;SDS011;5076;42.680;23.288;2022-11-15T08:05:34;65.37;;;34.37;;
10074;SDS011;5076;42.680;23.288;2022-11-15T08:08:01;76.73;;;38.27;;
10074;SDS011;5076;42.680;23.288;2022-11-15T08:10:27;80.53;;;38.57;;
10074;SDS011;5076;42.680;23.288;2022-11-15T08:12:58;72.27;;;36.50;;
10074;SDS011;5076;42.680;23.288;2022-11-15T08:15:24;74.47;;;37.40;;
10074;SDS011;5076;42.680;23.288;2022-11-15T08:17:55;73.17;;;38.00;;
10074;SDS011;5076;42.680;23.288;2022-11-15T08:20:21;86.60;;;40.60;;
10074;SDS011;5076;42.680;23.288;2022-11-15T08:22:49;80.13;;;38.90;;
10074;SDS011;5076;42.680;23.288;2022-11-15T08:25:16;83.17;;;40.73;;
10074;SDS011;5076;42.680;23.288;2022-11-15T08:27:43;83.43;;;40.27;;
10074;SDS011;5076;42.680;23.288;2022-11-15T08:30:10;91.50;;;42.67;;
10074;SDS011;5076;42.680;23.288;2022-11-15T08:32:37;89.60;;;42.23;;
10074;SDS011;5076;42.680;23.288;2022-11-15T08:35:04;95.10;;;43.20;;
10074;SDS011;5076;42.680;23.288;2022-11-15T08:37:31;89.73;;;43.13;;
10074;SDS011;5076;42.680;23.288;2022-11-15T08:39:59;90.37;;;39.53;;
10074;SDS011;5076;42.680;23.288;2022-11-15T08:42:25;88.70;;;41.40;;
10074;SDS011;5076;42.680;23.288;2022-11-15T08:44:52;79.13;;;40.23;;
10074;SDS011;5076;42.680;23.288;2022-11-15T08:47:18;75.33;;;37.27;;
10074;SDS011;5076;42.680;23.288;2022-11-15T08:49:47;65.73;;;35.77;;
10074;SDS011;5076;42.680;23.288;2022-11-15T08:52:15;63.37;;;35.80;;
10074;SDS011;5076;42.680;23.288;2022-11-15T08:54:42;61.83;;;34.17;;
10074;SDS011;5076;42.680;23.288;2022-11-15T08:57:09;61.53;;;34.40;;
10074;SDS011;5076;42.680;23.288;2022-11-15T08:59:36;65.57;;;36.67;;
10074;SDS011;5076;42.680;23.288;2022-11-15T09:02:03;62.53;;;35.57;;
10074;SDS011;5076;42.680;23.288;2022-11-15T09:04:29;65.97;;;38.50;;
10074;SDS011;5076;42.680;23.288;2022-11-15T09:06:56;70.73;;;37.53;;
10074;SDS011;5076;42.680;23.288;2022-11-15T09:09:22;67.53;;;38.03;;
10074;SDS011;5076;42.680;23.288;2022-11-15T09:11:49;74.60;;;41.17;;
10074;SDS011;5076;42.680;23.288;2022-11-15T09:14:17;69.13;;;38.93;;
10074;SDS011;5076;42.680;23.288;2022-11-15T09:16:43;70.57;;;39.10;;
10074;SDS011;5076;42.680;23.288;2022-11-15T09:19:10;68.60;;;38.97;;
10074;SDS011;5076;42.680;23.288;2022-11-15T09:21:36;67.97;;;38.43;;
10074;SDS011;5076;42.680;23.288;2022-11-15T09:24:03;63.57;;;37.27;;
10074;SDS011;5076;42.680;23.288;2022-11-15T09:26:30;67.90;;;39.00;;
10074;SDS011;5076;42.680;23.288;2022-11-15T09:28:56;72.13;;;38.43;;
10074;SDS011;5076;42.680;23.288;2022-11-15T09:31:25;61.57;;;36.03;;
10074;SDS011;5076;42.680;23.288;2022-11-15T09:33:51;64.30;;;35.57;;
10074;SDS011;5076;42.680;23.288;2022-11-15T09:36:18;61.13;;;35.30;;
10074;SDS011;5076;42.680;23.288;2022-11-15T09:38:45;56.20;;;35.80;;
10074;SDS011;5076;42.680;23.288;2022-11-15T09:41:21;57.27;;;33.57;;
10074;SDS011;5076;42.680;23.288;2022-11-15T09:43:53;48.03;;;28.90;;
10074;SDS011;5076;42.680;23.288;2022-11-15T09:46:25;51.60;;;30.97;;
10074;SDS011;5076;42.680;23.288;2022-11-15T09:48:56;53.07;;;33.33;;
10074;SDS011;5076;42.680;23.288;2022-11-15T09:51:24;55.50;;;32.70;;
10074;SDS011;5076;42.680;23.288;2022-11-15T09:53:54;52.93;;;32.93;;
10074;SDS011;5076;42.680;23.288;2022-11-15T09:56:23;51.83;;;31.77;;
10074;SDS011;5076;42.680;23.288;2022-11-15T09:58:53;49.00;;;31.67;;
10074;SDS011;5076;42.680;23.288;2022-11-15T10:01:30;60.13;;;35.10;;
10074;SDS011;5076;42.680;23.288;2022-11-15T10:04:01;51.07;;;31.97;;
10074;SDS011;5076;42.680;23.288;2022-11-15T10:06:28;54.73;;;34.33;;
10074;SDS011;5076;42.680;23.288;2022-11-15T10:08:57;59.13;;;36.03;;
10074;SDS011;5076;42.680;23.288;2022-11-15T10:11:25;58.87;;;34.83;;
10074;SDS011;5076;42.680;23.288;2022-11-15T10:13:54;54.80;;;34.53;;
10074;SDS011;5076;42.680;23.288;2022-11-15T10:19:07;59.03;;;37.73;;
10074;SDS011;5076;42.680;23.288;2022-11-15T10:21:37;65.50;;;39.63;;
10074;SDS011;5076;42.680;23.288;2022-11-15T10:24:10;66.17;;;38.20;;
10074;SDS011;5076;42.680;23.288;2022-11-15T10:26:37;63.57;;;37.17;;
10074;SDS011;5076;42.680;23.288;2022-11-15T10:29:03;62.77;;;38.93;;
10074;SDS011;5076;42.680;23.288;2022-11-15T10:31:30;65.77;;;38.40;;
10074;SDS011;5076;42.680;23.288;2022-11-15T10:33:59;62.60;;;38.07;;
10074;SDS011;5076;42.680;23.288;2022-11-15T10:36:38;58.67;;;36.90;;
10074;SDS011;5076;42.680;23.288;2022-11-15T10:39:04;82.03;;;43.37;;
10074;SDS011;5076;42.680;23.288;2022-11-15T10:41:32;82.47;;;42.87;;
10074;SDS011;5076;42.680;23.288;2022-11-15T10:44:17;96.50;;;48.07;;
10074;SDS011;5076;42.680;23.288;2022-11-15T10:46:45;72.90;;;40.07;;
10074;SDS011;5076;42.680;23.288;2022-11-15T10:49:14;60.37;;;36.83;;
10074;SDS011;5076;42.680;23.288;2022-11-15T10:51:44;56.67;;;35.07;;
10074;SDS011;5076;42.680;23.288;2022-11-15T10:54:11;60.67;;;35.93;;
10074;SDS011;5076;42.680;23.288;2022-11-15T10:56:38;52.27;;;32.27;;
10074;SDS011;5076;42.680;23.288;2022-11-15T10:59:05;53.10;;;34.43;;
10074;SDS011;5076;42.680;23.288;2022-11-15T11:01:45;55.50;;;34.70;;
10074;SDS011;5076;42.680;23.288;2022-11-15T11:04:12;52.13;;;32.40;;
10074;SDS011;5076;42.680;23.288;2022-11-15T11:06:47;58.23;;;33.87;;
10074;SDS011;5076;42.680;23.288;2022-11-15T11:09:21;50.37;;;32.40;;
10074;SDS011;5076;42.680;23.288;2022-11-15T11:11:48;48.17;;;32.30;;
10074;SDS011;5076;42.680;23.288;2022-11-15T11:14:17;48.90;;;31.20;;
10074;SDS011;5076;42.680;23.288;2022-11-15T11:16:47;46.87;;;31.53;;
10074;SDS011;5076;42.680;23.288;2022-11-15T11:19:20;53.27;;;33.33;;
10074;SDS011;5076;42.680;23.288;2022-11-15T11:22:03;59.80;;;34.63;;
10074;SDS011;5076;42.680;23.288;2022-11-15T11:24:37;56.37;;;34.80;;
10074;SDS011;5076;42.680;23.288;2022-11-15T11:27:16;50.60;;;32.77;;
10074;SDS011;5076;42.680;23.288;2022-11-15T11:29:49;56.23;;;35.87;;
10074;SDS011;5076;42.680;23.288;2022-11-15T11:32:23;57.87;;;36.87;;
10074;SDS011;5076;42.680;23.288;2022-11-15T11:34:55;56.37;;;37.27;;
10074;SDS011;5076;42.680;23.288;2022-11-15T11:37:29;64.93;;;38.60;;
10074;SDS011;5076;42.680;23.288;2022-11-15T11:39:59;58.37;;;36.10;;
10074;SDS011;5076;42.680;23.288;2022-11-15T11:42:30;58.57;;;37.10;;
10074;SDS011;5076;42.680;23.288;2022-11-15T11:45:00;61.50;;;38.87;;
10074;SDS011;5076;42.680;23.288;2022-11-15T11:47:29;57.03;;;37.17;;
10074;SDS011;5076;42.680;23.288;2022-11-15T11:49:59;59.33;;;37.43;;
10074;SDS011;5076;42.680;23.288;2022-11-15T11:52:27;64.70;;;39.97;;
10074;SDS011;5076;42.680;23.288;2022-11-15T11:55:00;62.30;;;39.50;;
10074;SDS011;5076;42.680;23.288;2022-11-15T11:57:30;58.67;;;38.63;;
10074;SDS011;5076;42.680;23.288;2022-11-15T12:00:00;58.40;;;38.30;;
10074;SDS011;5076;42.680;23.288;2022-11-15T12:02:28;60.07;;;39.30;;
10074;SDS011;5076;42.680;23.288;2022-11-15T12:04:59;63.43;;;38.80;;
10074;SDS011;5076;42.680;23.288;2022-11-15T12:07:28;60.70;;;38.33;;
10074;SDS011;5076;42.680;23.288;2022-11-15T12:09:58;61.20;;;39.97;;
10074;SDS011;5076;42.680;23.288;2022-11-15T12:12:27;61.77;;;39.47;;
10074;SDS011;5076;42.680;23.288;2022-11-15T12:14:57;65.10;;;40.40;;
10074;SDS011;5076;42.680;23.288;2022-11-15T12:17:26;60.77;;;39.67;;
10074;SDS011;5076;42.680;23.288;2022-11-15T12:19:57;59.83;;;39.57;;
10074;SDS011;5076;42.680;23.288;2022-11-15T12:22:33;62.87;;;39.73;;
10074;SDS011;5076;42.680;23.288;2022-11-15T12:25:03;59.73;;;39.43;;
10074;SDS011;5076;42.680;23.288;2022-11-15T12:27:33;59.97;;;39.13;;
10074;SDS011;5076;42.680;23.288;2022-11-15T12:30:02;57.00;;;38.73;;
10074;SDS011;5076;42.680;23.288;2022-11-15T12:32:30;59.83;;;38.33;;
10074;SDS011;5076;42.680;23.288;2022-11-15T12:34:58;58.70;;;38.77;;
10074;SDS011;5076;42.680;23.288;2022-11-15T12:37:46;57.83;;;38.77;;
10074;SDS011;5076;42.680;23.288;2022-11-15T12:40:18;56.73;;;37.10;;
10074;SDS011;5076;42.680;23.288;2022-11-15T12:42:58;56.57;;;37.33;;
10074;SDS011;5076;42.680;23.288;2022-11-15T12:45:26;54.80;;;37.00;;
10074;SDS011;5076;42.680;23.288;2022-11-15T12:47:53;53.60;;;35.60;;
10074;SDS011;5076;42.680;23.288;2022-11-15T12:58:40;52.80;;;35.70;;
10074;SDS011;5076;42.680;23.288;2022-11-15T13:01:08;55.67;;;35.70;;
10074;SDS011;5076;42.680;23.288;2022-11-15T13:03:35;52.77;;;35.03;;
10074;SDS011;5076;42.680;23.288;2022-11-15T13:06:09;51.27;;;35.07;;
10074;SDS011;5076;42.680;23.288;2022-11-15T13:08:37;51.80;;;35.90;;
10074;SDS011;5076;42.680;23.288;2022-11-15T13:13:47;56.83;;;35.33;;
10074;SDS011;5076;42.680;23.288;2022-11-15T13:16:17;56.87;;;37.03;;
10074;SDS011;5076;42.680;23.288;2022-11-15T13:18:52;53.10;;;36.47;;
10074;SDS011;5076;42.680;23.288;2022-11-15T13:21:20;54.57;;;37.67;;
10074;SDS011;5076;42.680;23.288;2022-11-15T13:24:05;52.77;;;35.97;;
10074;SDS011;5076;42.680;23.288;2022-11-15T13:26:37;57.80;;;35.67;;
10074;SDS011;5076;42.680;23.288;2022-11-15T13:29:12;52.43;;;35.77;;
10074;SDS011;5076;42.680;23.288;2022-11-15T13:31:41;54.03;;;35.50;;
10074;SDS011;5076;42.680;23.288;2022-11-15T13:34:22;58.30;;;36.70;;
10074;SDS011;5076;42.680;23.288;2022-11-15T13:36:50;50.07;;;35.33;;
10074;SDS011;5076;42.680;23.288;2022-11-15T13:39:24;52.50;;;35.80;;
10074;SDS011;5076;42.680;23.288;2022-11-15T13:44:37;52.23;;;36.30;;
10074;SDS011;5076;42.680;23.288;2022-11-15T13:47:05;50.43;;;34.93;;
10074;SDS011;5076;42.680;23.288;2022-11-15T13:49:32;54.03;;;38.03;;
10074;SDS011;5076;42.680;23.288;2022-11-15T13:51:59;51.70;;;33.83;;
10074;SDS011;5076;42.680;23.288;2022-11-15T13:54:27;51.77;;;37.13;;
10074;SDS011;5076;42.680;23.288;2022-11-15T13:56:57;51.60;;;36.13;;
10074;SDS011;5076;42.680;23.288;2022-11-15T13:59:25;51.10;;;35.07;;
10074;SDS011;5076;42.680;23.288;2022-11-15T14:01:54;51.70;;;35.03;;
10074;SDS011;5076;42.680;23.288;2022-11-15T14:04:21;55.67;;;35.77;;
10074;SDS011;5076;42.680;23.288;2022-11-15T14:06:49;52.13;;;36.03;;
10074;SDS011;5076;42.680;23.288;2022-11-15T14:09:30;49.43;;;35.00;;
10074;SDS011;5076;42.680;23.288;2022-11-15T14:11:58;50.03;;;33.80;;
10074;SDS011;5076;42.680;23.288;2022-11-15T14:14:25;53.50;;;36.43;;
10074;SDS011;5076;42.680;23.288;2022-11-15T14:16:52;53.90;;;36.63;;
10074;SDS011;5076;42.680;23.288;2022-11-15T14:19:39;53.00;;;36.67;;
10074;SDS011;5076;42.680;23.288;2022-11-15T14:30:31;57.73;;;36.50;;
10074;SDS011;5076;42.680;23.288;2022-11-15T14:32:57;55.80;;;36.53;;
10074;SDS011;5076;42.680;23.288;2022-11-15T14:35:29;62.03;;;38.77;;
10074;SDS011;5076;42.680;23.288;2022-11-15T14:37:55;58.20;;;36.87;;
10074;SDS011;5076;42.680;23.288;2022-11-15T14:40:22;56.07;;;36.87;;
10074;SDS011;5076;42.680;23.288;2022-11-15T14:42:49;58.17;;;37.53;;
10074;SDS011;5076;42.680;23.288;2022-11-15T14:45:17;57.43;;;36.83;;
10074;SDS011;5076;42.680;23.288;2022-11-15T14:47:43;57.23;;;36.73;;
10074;SDS011;5076;42.680;23.288;2022-11-15T14:50:11;62.33;;;38.33;;
10074;SDS011;5076;42.680;23.288;2022-11-15T14:52:39;58.77;;;36.93;;
10074;SDS011;5076;42.680;23.288;2022-11-15T14:55:11;52.43;;;34.80;;
10074;SDS011;5076;42.680;23.288;2022-11-15T14:57:39;56.93;;;35.57;;